Time,TemperatureF,DewpointF,PressureIn,WindDirection,WindDirectionDegrees,WindSpeedMPH,WindSpeedGustMPH,Humidity,HourlyPrecipIn,Conditions,Clouds,dailyrainin,SolarRadiationWatts/m^2,SoftwareType,DateUTC
2013-07-20 00:00:00,82.0,69.1,30.03,SE,135,3.5,3.5,65,0.00,CLR,,0.00,0.0,WeatherDisplay:10.37,2013-07-20 05:00:00,
2013-07-20 00:05:00,81.9,69.4,30.03,SE,135,5.8,5.8,66,0.00,CLR,,0.00,0.0,WeatherDisplay:10.37,2013-07-20 05:05:00,
2013-07-20 00:10:00,81.9,69.4,30.02,SE,135,5.8,5.8,66,0.00,CLR,,0.00,0.0,WeatherDisplay:10.37,2013-07-20 05:10:00,
2013-07-20 00:15:00,81.3,69.3,30.02,SSE,158,2.3,2.4,67,0.00,CLR,,0.00,0.0,WeatherDisplay:10.37,2013-07-20 05:15:00,
2013-07-20 00:20:00,81.3,69.7,30.02,SSE,158,2.3,2.4,68,0.00,CLR,,0.00,0.0,WeatherDisplay:10.37,2013-07-20 05:20:00,
2013-07-20 00:25:00,81.0,69.4,30.02,South,180,3.5,3.5,68,0.00,CLR,,0.00,0.0,WeatherDisplay:10.37,2013-07-20 05:25:00,
2013-07-20 00:31:00,81.0,69.8,30.03,SSE,158,2.3,2.3,69,0.00,CLR,,0.00,0.0,WeatherDisplay:10.37,2013-07-20 05:31:00,
2013-07-20 00:36:00,80.8,69.7,30.03,SSE,158,0.0,1.3,69,0.00,CLR,,0.00,0.0,WeatherDisplay:10.37,2013-07-20 05:36:00,
2013-07-20 00:41:00,80.8,69.7,30.03,WSW,248,2.3,2.3,69,0.00,CLR,,0.00,0.0,WeatherDisplay:10.37,2013-07-20 05:41:00,
2013-07-20 00:46:00,80.4,69.7,30.03,SSE,158,2.3,2.3,70,0.00,CLR,,0.00,0.0,WeatherDisplay:10.37,2013-07-20 05:46:00,
2013-07-20 00:51:00,80.2,69.6,30.03,SE,135,2.3,2.3,70,0.00,CLR,,0.00,0.0,WeatherDisplay:10.37,2013-07-20 05:51:00,
2013-07-20 00:56:00,80.4,69.7,30.03,SSE,158,3.5,3.5,70,0.00,CLR,,0.00,0.0,WeatherDisplay:10.37,2013-07-20 05:56:00,
2013-07-20 01:01:00,80.1,69.8,30.03,SSE,158,4.6,4.6,71,0.00,CLR,,0.00,0.0,WeatherDisplay:10.37,2013-07-20 06:01:00,
2013-07-20 01:07:00,80.1,69.8,30.03,SE,135,2.3,2.3,71,0.00,CLR,,0.00,0.0,WeatherDisplay:10.37,2013-07-20 06:07:00,
2013-07-20 01:12:00,79.7,69.9,30.02,ESE,112,3.5,3.5,72,0.00,CLR,,0.00,0.0,WeatherDisplay:10.37,2013-07-20 06:12:00,
2013-07-20 01:17:00,79.7,69.9,30.02,SSE,158,3.5,3.5,72,0.00,CLR,,0.00,0.0,WeatherDisplay:10.37,2013-07-20 06:17:00,
2013-07-20 01:22:00,79.5,69.7,30.02,South,180,1.3,1.6,72,0.00,CLR,,0.00,0.0,WeatherDisplay:10.37,2013-07-20 06:22:00,
2013-07-20 01:27:00,79.3,69.5,30.02,South,180,1.6,1.6,72,0.00,CLR,,0.00,0.0,WeatherDisplay:10.37,2013-07-20 06:27:00,
2013-07-20 01:32:00,79.2,69.8,30.01,SSE,158,2.3,2.3,73,0.00,CLR,,0.00,0.0,WeatherDisplay:10.37,2013-07-20 06:32:00,
2013-07-20 01:37:00,79.3,69.9,30.01,South,180,3.5,3.5,73,0.00,CLR,,0.00,0.0,WeatherDisplay:10.37,2013-07-20 06:37:00,
2013-07-20 01:42:00,79.0,70.0,30.01,South,180,3.5,3.5,74,0.00,CLR,,0.00,0.0,WeatherDisplay:10.37,2013-07-20 06:42:00,
2013-07-20 01:48:00,78.8,69.8,30.01,ENE,68,2.5,2.5,74,0.00,CLR,,0.00,0.0,WeatherDisplay:10.37,2013-07-20 06:48:00,
2013-07-20 01:53:00,79.0,70.0,30.02,SSE,158,1.2,1.2,74,0.00,CLR,,0.00,0.0,WeatherDisplay:10.37,2013-07-20 06:53:00,
2013-07-20 01:58:00,78.8,70.2,30.02,SSE,158,1.2,1.2,75,0.00,CLR,,0.00,0.0,WeatherDisplay:10.37,2013-07-20 06:58:00,
2013-07-20 02:03:00,78.6,70.0,30.02,South,180,3.5,3.5,75,0.00,CLR,,0.00,0.0,WeatherDisplay:10.37,2013-07-20 07:03:00,
2013-07-20 02:08:00,78.6,70.0,30.02,SW,225,1.2,1.2,75,0.00,CLR,,0.00,0.0,WeatherDisplay:10.37,2013-07-20 07:08:00,
2013-07-20 02:14:00,78.4,69.9,30.02,West,270,0.0,0.9,75,0.00,CLR,,0.00,0.0,WeatherDisplay:10.37,2013-07-20 07:14:00,
2013-07-20 02:19:00,78.6,70.4,30.02,SSE,158,2.3,2.3,76,0.00,CLR,,0.00,0.0,WeatherDisplay:10.37,2013-07-20 07:19:00,
2013-07-20 02:24:00,78.3,70.1,30.02,SW,225,0.0,0.6,76,0.00,CLR,,0.00,0.0,WeatherDisplay:10.37,2013-07-20 07:24:00,
2013-07-20 02:29:00,78.3,70.1,30.02,SE,135,1.2,1.2,76,0.00,CLR,,0.00,0.0,WeatherDisplay:10.37,2013-07-20 07:29:00,
2013-07-20 02:34:00,78.3,70.1,30.02,SW,225,0.0,0.6,76,0.00,CLR,,0.00,0.0,WeatherDisplay:10.37,2013-07-20 07:34:00,
2013-07-20 02:39:00,78.1,70.3,30.02,SSE,158,2.5,2.5,77,0.00,CLR,,0.00,0.0,WeatherDisplay:10.37,2013-07-20 07:39:00,
2013-07-20 02:45:00,78.3,70.5,30.02,SSE,158,2.3,2.3,77,0.00,CLR,,0.00,0.0,WeatherDisplay:10.37,2013-07-20 07:45:00,
2013-07-20 02:50:00,78.3,70.5,30.01,South,180,2.3,2.3,77,0.00,CLR,,0.00,0.0,WeatherDisplay:10.37,2013-07-20 07:50:00,
2013-07-20 02:55:00,78.1,70.3,30.01,South,180,2.3,2.3,77,0.00,CLR,,0.00,0.0,WeatherDisplay:10.37,2013-07-20 07:55:00,
2013-07-20 03:00:00,78.1,70.3,30.01,South,180,2.3,2.3,77,0.00,CLR,,0.00,0.0,WeatherDisplay:10.37,2013-07-20 08:00:00,
2013-07-20 03:05:00,78.1,70.3,30.01,SSE,158,3.8,3.8,77,0.00,CLR,,0.00,0.0,WeatherDisplay:10.37,2013-07-20 08:05:00,
2013-07-20 03:10:00,78.1,70.3,30.00,SSE,158,3.8,3.8,77,0.00,CLR,,0.00,0.0,WeatherDisplay:10.37,2013-07-20 08:10:00,
2013-07-20 03:15:00,77.9,70.5,30.00,SE,135,0.0,1.2,78,0.00,CLR,,0.00,0.0,WeatherDisplay:10.37,2013-07-20 08:15:00,
2013-07-20 03:21:00,77.9,70.5,30.00,ESE,112,0.0,0.9,78,0.00,CLR,,0.00,0.0,WeatherDisplay:10.37,2013-07-20 08:21:00,
2013-07-20 03:26:00,77.9,70.5,30.00,SSE,158,2.3,2.3,78,0.00,CLR,,0.00,0.0,WeatherDisplay:10.37,2013-07-20 08:26:00,
2013-07-20 03:31:00,77.9,70.5,30.01,SW,225,0.0,0.9,78,0.00,CLR,,0.00,0.0,WeatherDisplay:10.37,2013-07-20 08:31:00,
2013-07-20 03:36:00,77.5,70.1,30.01,SSW,202,0.0,0.5,78,0.00,CLR,,0.00,0.0,WeatherDisplay:10.37,2013-07-20 08:36:00,
2013-07-20 03:42:00,77.4,70.3,30.01,SSE,158,0.0,0.1,79,0.00,CLR,,0.00,0.0,WeatherDisplay:10.37,2013-07-20 08:42:00,
2013-07-20 03:47:00,77.4,70.3,30.01,South,180,0.0,0.1,79,0.00,CLR,,0.00,0.0,WeatherDisplay:10.37,2013-07-20 08:47:00,
2013-07-20 03:52:00,77.4,70.3,30.01,West,270,3.5,3.5,79,0.00,CLR,,0.00,0.0,WeatherDisplay:10.37,2013-07-20 08:52:00,
2013-07-20 03:57:00,77.4,70.3,30.01,ENE,68,1.2,1.2,79,0.00,CLR,,0.00,0.0,WeatherDisplay:10.37,2013-07-20 08:57:00,
2013-07-20 04:02:00,77.4,70.3,30.01,NNW,338,2.3,2.3,79,0.00,CLR,,0.00,0.0,WeatherDisplay:10.37,2013-07-20 09:02:00,
2013-07-20 04:07:00,77.4,70.7,30.01,SSW,202,2.3,2.3,80,0.00,CLR,,0.00,0.0,WeatherDisplay:10.37,2013-07-20 09:07:00,
2013-07-20 04:13:00,77.2,70.5,30.00,South,180,2.3,2.3,80,0.00,CLR,,0.00,0.0,WeatherDisplay:10.37,2013-07-20 09:13:00,
2013-07-20 04:18:00,77.2,70.5,30.00,East,90,1.2,1.2,80,0.00,CLR,,0.00,0.0,WeatherDisplay:10.37,2013-07-20 09:18:00,
2013-07-20 04:23:00,77.2,70.5,30.00,West,270,1.3,1.3,80,0.00,CLR,,0.00,0.0,WeatherDisplay:10.37,2013-07-20 09:23:00,
2013-07-20 04:28:00,77.2,70.5,30.00,SSE,158,2.3,2.3,80,0.00,CLR,,0.00,0.0,WeatherDisplay:10.37,2013-07-20 09:28:00,
2013-07-20 04:34:00,77.2,70.5,30.00,South,180,2.3,2.3,80,0.00,CLR,,0.00,0.0,WeatherDisplay:10.37,2013-07-20 09:34:00,
2013-07-20 04:39:00,77.0,70.4,30.00,SSE,158,1.2,1.2,80,0.00,CLR,,0.00,0.0,WeatherDisplay:10.37,2013-07-20 09:39:00,
2013-07-20 04:44:00,77.2,70.5,30.00,South,180,1.2,1.2,80,0.00,CLR,,0.00,0.0,WeatherDisplay:10.37,2013-07-20 09:44:00,
2013-07-20 04:49:00,77.2,70.5,30.00,SE,135,0.0,0.3,80,0.00,CLR,,0.00,0.0,WeatherDisplay:10.37,2013-07-20 09:49:00,
2013-07-20 04:54:00,77.2,70.9,30.00,South,180,1.2,1.2,81,0.00,CLR,,0.00,0.0,WeatherDisplay:10.37,2013-07-20 09:54:00,
2013-07-20 04:59:00,77.2,70.9,30.00,SE,135,3.0,3.0,81,0.00,CLR,,0.00,0.0,WeatherDisplay:10.37,2013-07-20 09:59:00,
2013-07-20 05:04:00,77.0,70.4,30.00,South,180,2.8,2.8,80,0.00,CLR,,0.00,0.0,WeatherDisplay:10.37,2013-07-20 10:04:00,
2013-07-20 05:10:00,77.0,70.4,30.00,SSE,158,2.3,2.3,80,0.00,CLR,,0.00,0.0,WeatherDisplay:10.37,2013-07-20 10:10:00,
2013-07-20 05:15:00,76.8,70.5,30.00,SSE,158,2.3,2.3,81,0.00,CLR,,0.00,0.0,WeatherDisplay:10.37,2013-07-20 10:15:00,
2013-07-20 05:20:00,76.8,70.5,30.00,WSW,248,0.0,0.6,81,0.00,CLR,,0.00,0.0,WeatherDisplay:10.37,2013-07-20 10:20:00,
2013-07-20 05:26:00,76.6,70.4,30.00,SSW,202,0.0,0.2,81,0.00,CLR,,0.00,0.0,WeatherDisplay:10.37,2013-07-20 10:26:00,
2013-07-20 05:31:00,76.8,70.5,30.00,SSE,158,2.3,2.3,81,0.00,CLR,,0.00,0.0,WeatherDisplay:10.37,2013-07-20 10:31:00,
2013-07-20 05:36:00,76.6,70.4,30.00,SE,135,2.3,2.3,81,0.00,CLR,,0.00,0.0,WeatherDisplay:10.37,2013-07-20 10:36:00,
2013-07-20 05:41:00,76.6,70.4,30.00,East,90,2.3,2.3,81,0.00,CLR,,0.00,0.0,WeatherDisplay:10.37,2013-07-20 10:41:00,
2013-07-20 05:46:00,76.6,70.4,30.00,SE,135,4.7,4.7,81,0.00,CLR,,0.00,0.0,WeatherDisplay:10.37,2013-07-20 10:46:00,
2013-07-20 05:51:00,76.8,70.5,30.01,SE,135,2.3,2.3,81,0.00,CLR,,0.00,0.0,WeatherDisplay:10.37,2013-07-20 10:51:00,
2013-07-20 05:57:00,76.6,70.4,30.01,SSE,158,2.3,2.3,81,0.00,CLR,,0.00,0.0,WeatherDisplay:10.37,2013-07-20 10:57:00,
2013-07-20 06:02:00,76.8,70.9,30.01,South,180,2.3,2.3,82,0.00,CLR,,0.00,0.0,WeatherDisplay:10.37,2013-07-20 11:02:00,
2013-07-20 06:07:00,76.8,70.9,30.01,South,180,2.3,2.3,82,0.00,OVC,,0.00,0.0,WeatherDisplay:10.37,2013-07-20 11:07:00,
2013-07-20 06:12:00,76.6,70.7,30.00,South,180,2.3,2.3,82,0.00,OVC,,0.00,0.0,WeatherDisplay:10.37,2013-07-20 11:12:00,
2013-07-20 06:17:00,76.6,70.7,30.00,ESE,112,4.6,4.6,82,0.00,OVC,,0.00,0.0,WeatherDisplay:10.37,2013-07-20 11:17:00,
2013-07-20 06:22:00,76.5,70.6,30.00,South,180,3.5,3.5,82,0.00,OVC,,0.00,0.0,WeatherDisplay:10.37,2013-07-20 11:22:00,
2013-07-20 06:28:00,76.5,70.6,30.00,South,180,3.5,3.5,82,0.00,OVC,,0.00,0.0,WeatherDisplay:10.37,2013-07-20 11:28:00,
2013-07-20 06:33:00,76.5,70.6,30.00,SE,135,2.3,2.3,82,0.00,OVC,,0.00,0.0,WeatherDisplay:10.37,2013-07-20 11:33:00,
2013-07-20 06:38:00,76.5,70.6,30.00,SSE,158,2.8,2.8,82,0.00,OVC,,0.00,0.0,WeatherDisplay:10.37,2013-07-20 11:38:00,
2013-07-20 06:43:00,76.3,70.4,30.00,SE,135,1.2,1.6,82,0.00,OVC,,0.00,0.0,WeatherDisplay:10.37,2013-07-20 11:43:00,
2013-07-20 06:49:00,76.3,70.4,30.01,SE,135,2.3,2.3,82,0.00,OVC,,0.00,0.0,WeatherDisplay:10.37,2013-07-20 11:49:00,
2013-07-20 06:54:00,76.5,70.9,30.01,SE,135,1.2,1.2,83,0.00,OVC,,0.00,0.0,WeatherDisplay:10.37,2013-07-20 11:54:00,
2013-07-20 06:59:00,76.3,70.4,30.01,SE,135,1.2,1.2,82,0.00,OVC,,0.00,0.0,WeatherDisplay:10.37,2013-07-20 11:59:00,
2013-07-20 07:04:00,76.1,70.2,30.01,ESE,112,2.3,2.3,82,0.00,OVC,,0.00,0.0,WeatherDisplay:10.37,2013-07-20 12:04:00,
2013-07-20 07:09:00,76.3,70.4,30.01,SE,135,2.3,2.3,82,0.00,OVC,,0.00,0.0,WeatherDisplay:10.37,2013-07-20 12:09:00,
2013-07-20 07:14:00,76.3,70.4,30.01,ESE,112,2.3,2.3,82,0.00,OVC,,0.00,0.0,WeatherDisplay:10.37,2013-07-20 12:14:00,
2013-07-20 07:19:00,76.1,70.2,30.01,SSE,158,4.6,4.6,82,0.00,OVC,,0.00,0.0,WeatherDisplay:10.37,2013-07-20 12:19:00,
2013-07-20 07:25:00,76.1,70.2,30.01,East,90,3.5,3.5,82,0.00,OVC,,0.00,0.0,WeatherDisplay:10.37,2013-07-20 12:25:00,
2013-07-20 07:30:00,76.1,70.2,30.01,SE,135,1.5,1.5,82,0.00,OVC,,0.00,0.0,WeatherDisplay:10.37,2013-07-20 12:30:00,
2013-07-20 07:35:00,76.3,70.7,30.01,ESE,112,2.3,2.3,83,0.00,OVC,,0.00,0.0,WeatherDisplay:10.37,2013-07-20 12:35:00,
2013-07-20 07:40:00,76.3,70.7,30.01,SE,135,2.3,2.3,83,0.00,OVC,,0.00,0.0,WeatherDisplay:10.37,2013-07-20 12:40:00,
2013-07-20 07:45:00,76.5,70.9,30.01,SSE,158,2.3,2.3,83,0.00,OVC,,0.00,0.0,WeatherDisplay:10.37,2013-07-20 12:45:00,
2013-07-20 07:50:00,76.5,70.9,30.00,SSE,158,1.5,1.5,83,0.00,OVC,,0.00,0.0,WeatherDisplay:10.37,2013-07-20 12:50:00,
2013-07-20 07:56:00,76.5,70.9,30.00,ESE,112,2.3,2.3,83,0.00,OVC,,0.00,0.0,WeatherDisplay:10.37,2013-07-20 12:56:00,
2013-07-20 08:01:00,76.5,70.9,30.00,South,180,2.3,2.3,83,0.00,OVC,,0.00,0.0,WeatherDisplay:10.37,2013-07-20 13:01:00,
2013-07-20 08:06:00,76.5,70.9,30.00,SW,225,0.0,1.0,83,0.00,OVC,,0.00,0.0,WeatherDisplay:10.37,2013-07-20 13:06:00,
2013-07-20 08:11:00,76.6,71.1,30.00,SSE,158,1.2,1.2,83,0.00,OVC,,0.00,10.0,WeatherDisplay:10.37,2013-07-20 13:11:00,
2013-07-20 08:17:00,76.6,71.1,30.00,SE,135,0.0,0.8,83,0.00,OVC,,0.00,10.0,WeatherDisplay:10.37,2013-07-20 13:17:00,
2013-07-20 08:22:00,76.6,71.1,30.00,South,180,3.5,3.5,83,0.00,OVC,,0.00,10.0,WeatherDisplay:10.37,2013-07-20 13:22:00,
2013-07-20 08:27:00,77.0,71.4,30.00,SW,225,2.3,2.3,83,0.00,OVC,,0.00,10.0,WeatherDisplay:10.37,2013-07-20 13:27:00,
2013-07-20 08:32:00,77.2,71.6,30.00,South,180,2.3,2.3,83,0.00,OVC,,0.00,10.0,WeatherDisplay:10.37,2013-07-20 13:32:00,
2013-07-20 08:38:00,77.4,71.8,30.00,South,180,2.3,2.3,83,0.00,OVC,,0.00,20.0,WeatherDisplay:10.37,2013-07-20 13:38:00,
2013-07-20 08:43:00,77.5,72.0,30.00,SSE,158,2.3,2.3,83,0.00,OVC,,0.00,20.0,WeatherDisplay:10.37,2013-07-20 13:43:00,
2013-07-20 08:48:00,77.5,71.6,30.00,SW,225,0.0,0.9,82,0.00,OVC,,0.00,20.0,WeatherDisplay:10.37,2013-07-20 13:48:00,
2013-07-20 08:54:00,77.7,71.8,30.01,ESE,112,0.0,0.2,82,0.00,OVC,,0.00,30.0,WeatherDisplay:10.37,2013-07-20 13:54:00,
2013-07-20 08:59:00,77.9,72.0,30.01,South,180,0.0,0.5,82,0.00,OVC,,0.00,30.0,WeatherDisplay:10.37,2013-07-20 13:59:00,
2013-07-20 09:04:00,78.1,72.1,30.01,West,270,0.0,0.3,82,0.00,OVC,,0.00,40.0,WeatherDisplay:10.37,2013-07-20 14:04:00,
2013-07-20 09:09:00,78.1,72.1,30.00,WSW,248,0.0,0.2,82,0.00,OVC,,0.00,40.0,WeatherDisplay:10.37,2013-07-20 14:09:00,
2013-07-20 09:14:00,78.6,72.7,30.00,South,180,0.0,0.3,82,0.00,OVC,,0.00,40.0,WeatherDisplay:10.37,2013-07-20 14:14:00,
2013-07-20 09:20:00,78.6,72.3,30.00,South,180,0.0,0.2,81,0.00,OVC,,0.00,40.0,WeatherDisplay:10.37,2013-07-20 14:20:00,
2013-07-20 09:25:00,78.6,72.3,30.00,South,180,0.0,0.2,81,0.00,OVC,,0.00,50.0,WeatherDisplay:10.37,2013-07-20 14:25:00,
2013-07-20 09:30:00,78.8,72.5,30.00,NW,315,0.0,0.0,81,0.00,OVC,,0.00,50.0,WeatherDisplay:10.37,2013-07-20 14:30:00,
2013-07-20 09:35:00,79.3,72.6,30.00,West,270,0.0,0.1,80,0.00,OVC,,0.00,50.0,WeatherDisplay:10.37,2013-07-20 14:35:00,
2013-07-20 09:40:00,79.3,72.6,30.00,West,270,0.0,0.1,80,0.00,OVC,,0.00,50.0,WeatherDisplay:10.37,2013-07-20 14:40:00,
2013-07-20 09:45:00,79.3,72.6,30.00,WSW,248,1.2,1.2,80,0.00,OVC,,0.00,50.0,WeatherDisplay:10.37,2013-07-20 14:45:00,
2013-07-20 09:50:00,79.3,72.6,30.00,South,180,1.2,1.2,80,0.00,OVC,,0.00,50.0,WeatherDisplay:10.37,2013-07-20 14:50:00,
2013-07-20 09:55:00,79.3,72.6,30.00,WNW,292,0.0,0.2,80,0.00,OVC,,0.00,50.0,WeatherDisplay:10.37,2013-07-20 14:55:00,
2013-07-20 10:00:00,79.3,72.6,30.00,WSW,248,0.0,0.1,80,0.00,OVC,,0.00,50.0,WeatherDisplay:10.37,2013-07-20 15:00:00,
2013-07-20 10:06:00,79.3,72.6,30.00,NNE,22,0.0,0.2,80,0.00,OVC,,0.00,50.0,WeatherDisplay:10.37,2013-07-20 15:06:00,
2013-07-20 10:11:00,79.3,72.6,30.00,West,270,0.0,0.2,80,0.00,OVC,,0.00,50.0,WeatherDisplay:10.37,2013-07-20 15:11:00,
2013-07-20 10:16:00,81.5,73.2,30.00,NNE,22,0.0,0.1,76,0.00,OVC,,0.00,50.0,WeatherDisplay:10.37,2013-07-20 15:16:00,
2013-07-20 10:21:00,81.9,73.5,30.00,West,270,0.0,0.1,76,0.00,OVC,,0.00,50.0,WeatherDisplay:10.37,2013-07-20 15:21:00,
2013-07-20 10:26:00,82.0,73.3,30.00,WSW,248,1.3,1.3,75,0.00,OVC,,0.00,50.0,WeatherDisplay:10.37,2013-07-20 15:26:00,
2013-07-20 10:31:00,82.0,73.3,30.00,WSW,248,0.0,0.1,75,0.00,OVC,,0.00,50.0,WeatherDisplay:10.37,2013-07-20 15:31:00,
2013-07-20 10:36:00,82.6,73.8,30.00,SSW,202,0.0,0.0,75,0.00,OVC,,0.00,50.0,WeatherDisplay:10.37,2013-07-20 15:36:00,
2013-07-20 10:42:00,82.8,73.6,30.00,NW,315,0.0,0.1,74,0.00,OVC,,0.00,50.0,WeatherDisplay:10.37,2013-07-20 15:42:00,
2013-07-20 10:47:00,83.3,73.7,30.00,South,180,0.0,0.2,73,0.00,OVC,,0.00,50.0,WeatherDisplay:10.37,2013-07-20 15:47:00,
2013-07-20 10:52:00,83.5,73.9,30.01,South,180,0.0,0.1,73,0.00,OVC,,0.00,50.0,WeatherDisplay:10.37,2013-07-20 15:52:00,
2013-07-20 10:57:00,83.7,73.7,30.01,NW,315,0.0,0.1,72,0.00,OVC,,0.00,50.0,WeatherDisplay:10.37,2013-07-20 15:57:00,
2013-07-20 11:02:00,83.7,74.1,30.01,West,270,0.0,0.0,73,0.00,OVC,,0.00,50.0,WeatherDisplay:10.37,2013-07-20 16:02:00,
2013-07-20 11:07:00,84.0,74.0,30.01,NNE,22,0.0,0.1,72,0.00,OVC,,0.00,50.0,WeatherDisplay:10.37,2013-07-20 16:07:00,
2013-07-20 11:13:00,84.2,73.3,30.00,SW,225,0.0,0.1,70,0.00,OVC,,0.00,80.0,WeatherDisplay:10.37,2013-07-20 16:13:00,
2013-07-20 11:18:00,84.6,74.1,30.00,West,270,0.0,0.1,71,0.00,OVC,,0.00,80.0,WeatherDisplay:10.37,2013-07-20 16:18:00,
2013-07-20 11:23:00,84.6,73.7,30.00,WSW,248,0.0,0.1,70,0.00,OVC,,0.00,80.0,WeatherDisplay:10.37,2013-07-20 16:23:00,
2013-07-20 11:28:00,84.7,73.4,30.00,SW,225,1.2,1.2,69,0.00,OVC,,0.00,70.0,WeatherDisplay:10.37,2013-07-20 16:28:00,
2013-07-20 11:33:00,85.3,73.5,30.00,SSW,202,2.3,2.3,68,0.00,OVC,,0.00,70.0,WeatherDisplay:10.37,2013-07-20 16:33:00,
2013-07-20 11:39:00,85.8,74.0,30.00,WNW,292,1.2,1.2,68,0.00,CLR,,0.00,70.0,WeatherDisplay:10.37,2013-07-20 16:39:00,
2013-07-20 11:44:00,85.8,73.6,30.00,West,270,2.3,2.3,67,0.00,CLR,,0.00,60.0,WeatherDisplay:10.37,2013-07-20 16:44:00,
2013-07-20 11:49:00,86.2,73.5,30.00,SW,225,0.0,0.2,66,0.00,CLR,,0.00,60.0,WeatherDisplay:10.37,2013-07-20 16:49:00,
2013-07-20 11:54:00,86.4,73.2,30.00,WSW,248,0.0,0.3,65,0.00,CLR,,0.00,60.0,WeatherDisplay:10.37,2013-07-20 16:54:00,
2013-07-20 11:59:00,86.7,73.1,30.00,NW,315,1.2,1.2,64,0.00,CLR,,0.00,60.0,WeatherDisplay:10.37,2013-07-20 16:59:00,
2013-07-20 12:05:00,86.7,73.1,30.00,SE,135,0.0,0.3,64,0.00,FEW,,0.00,60.0,WeatherDisplay:10.37,2013-07-20 17:05:00,
2013-07-20 12:10:00,86.7,73.1,29.99,SE,135,0.0,0.3,64,0.00,SCT,,0.00,60.0,WeatherDisplay:10.37,2013-07-20 17:10:00,
2013-07-20 12:15:00,87.3,72.6,29.99,SE,135,0.0,1.3,62,0.00,BKN,,0.00,50.0,WeatherDisplay:10.37,2013-07-20 17:15:00,
2013-07-20 12:20:00,87.6,73.5,29.99,NW,315,0.0,0.8,63,0.00,BKN,,0.00,50.0,WeatherDisplay:10.37,2013-07-20 17:20:00,
2013-07-20 12:25:00,88.0,73.3,29.99,West,270,0.0,0.2,62,0.00,BKN,,0.00,50.0,WeatherDisplay:10.37,2013-07-20 17:25:00,
2013-07-20 12:30:00,87.8,72.2,29.98,NW,315,0.0,0.0,60,0.00,OVC,,0.00,50.0,WeatherDisplay:10.37,2013-07-20 17:30:00,
2013-07-20 12:35:00,88.2,72.5,29.98,SSE,158,4.6,4.6,60,0.00,OVC,,0.00,60.0,WeatherDisplay:10.37,2013-07-20 17:35:00,
2013-07-20 12:41:00,88.7,73.5,29.98,ESE,112,5.8,5.8,61,0.00,OVC,,0.00,60.0,WeatherDisplay:10.37,2013-07-20 17:41:00,
2013-07-20 12:46:00,88.7,73.0,29.98,SSE,158,2.3,2.5,60,0.00,OVC,,0.00,60.0,WeatherDisplay:10.37,2013-07-20 17:46:00,
2013-07-20 12:51:00,89.1,73.4,29.99,ESE,112,2.3,2.3,60,0.00,OVC,,0.00,60.0,WeatherDisplay:10.37,2013-07-20 17:51:00,
2013-07-20 12:56:00,89.1,71.8,29.99,West,270,0.0,0.9,57,0.00,OVC,,0.00,50.0,WeatherDisplay:10.37,2013-07-20 17:56:00,
2013-07-20 13:01:00,89.1,72.9,29.99,ESE,112,0.0,0.2,59,0.00,OVC,,0.00,50.0,WeatherDisplay:10.37,2013-07-20 18:01:00,
2013-07-20 13:06:00,88.9,72.7,29.99,SSE,158,1.6,1.6,59,0.00,OVC,,0.00,40.0,WeatherDisplay:10.37,2013-07-20 18:06:00,
2013-07-20 13:11:00,88.7,72.5,29.98,WSW,248,2.3,2.3,59,0.00,OVC,,0.00,40.0,WeatherDisplay:10.37,2013-07-20 18:11:00,
2013-07-20 13:17:00,88.7,72.5,29.98,South,180,1.2,1.2,59,0.00,OVC,,0.00,30.0,WeatherDisplay:10.37,2013-07-20 18:17:00,
2013-07-20 13:22:00,88.7,72.5,29.98,NNE,22,0.0,0.3,59,0.00,OVC,,0.00,30.0,WeatherDisplay:10.37,2013-07-20 18:22:00,
2013-07-20 13:27:00,89.4,72.2,29.98,NE,45,1.2,1.2,57,0.00,OVC,,0.00,40.0,WeatherDisplay:10.37,2013-07-20 18:27:00,
2013-07-20 13:33:00,89.8,73.0,29.97,WNW,292,2.3,2.3,58,0.00,OVC,,0.00,40.0,WeatherDisplay:10.37,2013-07-20 18:33:00,
2013-07-20 13:38:00,89.8,72.5,29.97,SSW,202,2.3,2.3,57,0.00,OVC,,0.00,40.0,WeatherDisplay:10.37,2013-07-20 18:38:00,
2013-07-20 13:43:00,90.1,71.8,29.97,South,180,2.3,2.3,55,0.00,OVC,,0.00,40.0,WeatherDisplay:10.37,2013-07-20 18:43:00,
2013-07-20 13:48:00,90.3,72.5,29.97,ESE,112,2.3,2.3,56,0.00,OVC,,0.00,50.0,WeatherDisplay:10.37,2013-07-20 18:48:00,
2013-07-20 13:54:00,90.3,71.4,29.97,SSE,158,0.0,0.9,54,0.00,OVC,,0.00,50.0,WeatherDisplay:10.37,2013-07-20 18:54:00,
2013-07-20 13:59:00,90.1,72.3,29.97,South,180,3.5,3.5,56,0.00,OVC,,0.00,40.0,WeatherDisplay:10.37,2013-07-20 18:59:00,
2013-07-20 14:04:00,90.5,72.7,29.97,West,270,0.0,1.0,56,0.00,OVC,,0.00,40.0,WeatherDisplay:10.37,2013-07-20 19:04:00,
2013-07-20 14:09:00,90.9,71.9,29.95,NNW,338,2.3,2.3,54,0.00,OVC,,0.00,40.0,WeatherDisplay:10.37,2013-07-20 19:09:00,
2013-07-20 14:15:00,90.9,71.9,29.95,NE,45,1.3,1.3,54,0.00,OVC,,0.00,40.0,WeatherDisplay:10.37,2013-07-20 19:15:00,
2013-07-20 14:20:00,90.9,72.5,29.95,SE,135,0.0,1.2,55,0.00,OVC,,0.00,40.0,WeatherDisplay:10.37,2013-07-20 19:20:00,
2013-07-20 14:26:00,90.5,72.7,29.95,SE,135,1.6,1.6,56,0.00,OVC,,0.00,30.0,WeatherDisplay:10.37,2013-07-20 19:26:00,
2013-07-20 14:31:00,90.5,72.7,29.95,SE,135,4.6,4.6,56,0.00,OVC,,0.00,30.0,WeatherDisplay:10.37,2013-07-20 19:31:00,
2013-07-20 14:36:00,90.5,72.7,29.95,SE,135,2.3,2.3,56,0.00,OVC,,0.00,20.0,WeatherDisplay:10.37,2013-07-20 19:36:00,
2013-07-20 14:41:00,91.0,72.1,29.95,ESE,112,4.6,4.6,54,0.00,OVC,,0.00,30.0,WeatherDisplay:10.37,2013-07-20 19:41:00,
2013-07-20 14:47:00,91.0,72.1,29.95,ESE,112,3.5,3.5,54,0.00,OVC,,0.00,30.0,WeatherDisplay:10.37,2013-07-20 19:47:00,
2013-07-20 14:52:00,91.2,72.2,29.94,West,270,0.0,1.4,54,0.00,OVC,,0.00,30.0,WeatherDisplay:10.37,2013-07-20 19:52:00,
2013-07-20 14:57:00,91.2,71.7,29.94,WSW,248,0.0,0.2,53,0.00,OVC,,0.00,40.0,WeatherDisplay:10.37,2013-07-20 19:57:00,
2013-07-20 15:03:00,91.2,72.8,29.94,WNW,292,0.0,0.0,55,0.00,OVC,,0.00,40.0,WeatherDisplay:10.37,2013-07-20 20:03:00,
2013-07-20 15:08:00,91.2,72.2,29.94,West,270,0.0,0.0,54,0.00,OVC,,0.00,40.0,WeatherDisplay:10.37,2013-07-20 20:08:00,
2013-07-20 15:13:00,91.2,71.7,29.93,West,270,0.0,0.0,53,0.00,OVC,,0.00,40.0,WeatherDisplay:10.37,2013-07-20 20:13:00,
2013-07-20 15:19:00,91.2,72.8,29.93,ESE,112,2.3,2.3,55,0.00,OVC,,0.00,40.0,WeatherDisplay:10.37,2013-07-20 20:19:00,
2013-07-20 15:24:00,91.0,72.1,29.93,WNW,292,0.0,0.2,54,0.00,OVC,,0.00,30.0,WeatherDisplay:10.37,2013-07-20 20:24:00,
2013-07-20 15:29:00,90.9,71.9,29.92,SE,135,0.0,0.2,54,0.00,OVC,,0.00,30.0,WeatherDisplay:10.37,2013-07-20 20:29:00,
2013-07-20 15:34:00,90.9,71.9,29.92,SSW,202,0.0,0.1,54,0.00,OVC,,0.00,20.0,WeatherDisplay:10.37,2013-07-20 20:34:00,
2013-07-20 15:39:00,90.9,72.5,29.92,South,180,2.3,2.3,55,0.00,OVC,,0.00,20.0,WeatherDisplay:10.37,2013-07-20 20:39:00,
2013-07-20 15:45:00,90.9,72.5,29.92,WNW,292,0.0,0.3,55,0.00,OVC,,0.00,20.0,WeatherDisplay:10.37,2013-07-20 20:45:00,
2013-07-20 15:50:00,90.7,72.8,29.92,NNW,338,0.0,0.0,56,0.00,OVC,,0.00,20.0,WeatherDisplay:10.37,2013-07-20 20:50:00,
2013-07-20 15:55:00,90.9,73.5,29.92,NNW,338,2.3,2.3,57,0.00,OVC,,0.00,20.0,WeatherDisplay:10.37,2013-07-20 20:55:00,
2013-07-20 16:01:00,90.7,73.4,29.92,West,270,0.0,0.2,57,0.00,OVC,,0.00,20.0,WeatherDisplay:10.37,2013-07-20 21:01:00,
2013-07-20 16:06:00,90.9,73.5,29.92,NW,315,0.0,0.1,57,0.00,OVC,,0.00,20.0,WeatherDisplay:10.37,2013-07-20 21:06:00,
2013-07-20 16:11:00,90.7,72.8,29.92,NW,315,2.3,2.3,56,0.00,OVC,,0.00,20.0,WeatherDisplay:10.37,2013-07-20 21:11:00,
2013-07-20 16:17:00,90.9,73.5,29.92,WNW,292,0.0,0.2,57,0.00,OVC,,0.00,20.0,WeatherDisplay:10.37,2013-07-20 21:17:00,
2013-07-20 16:22:00,91.2,72.8,29.92,SW,225,1.2,1.2,55,0.00,OVC,,0.00,20.0,WeatherDisplay:10.37,2013-07-20 21:22:00,
2013-07-20 16:27:00,91.0,73.2,29.92,NW,315,2.3,2.3,56,0.00,OVC,,0.00,20.0,WeatherDisplay:10.37,2013-07-20 21:27:00,
2013-07-20 16:33:00,90.7,73.4,29.91,ESE,112,3.5,3.5,57,0.00,OVC,,0.00,20.0,WeatherDisplay:10.37,2013-07-20 21:33:00,
2013-07-20 16:38:00,90.5,72.7,29.91,ENE,68,5.9,5.9,56,0.00,OVC,,0.00,20.0,WeatherDisplay:10.37,2013-07-20 21:38:00,
2013-07-20 16:44:00,90.3,73.0,29.91,SE,135,9.2,9.2,57,0.00,OVC,,0.00,20.0,WeatherDisplay:10.37,2013-07-20 21:44:00,
2013-07-20 16:49:00,89.6,74.9,29.92,South,180,8.1,8.1,62,0.00,OVC,,0.00,20.0,WeatherDisplay:10.37,2013-07-20 21:49:00,
2013-07-20 16:54:00,86.5,72.0,29.92,WNW,292,3.5,3.9,62,0.03,RA,,0.03,20.0,WeatherDisplay:10.37,2013-07-20 21:54:00,
2013-07-20 16:59:00,83.7,72.4,29.92,ENE,68,2.4,2.4,69,0.09,RA,,0.09,20.0,WeatherDisplay:10.37,2013-07-20 21:59:00,
2013-07-20 17:05:00,83.7,73.3,29.92,NE,45,0.0,1.8,71,0.13,RA,,0.13,20.0,WeatherDisplay:10.37,2013-07-20 22:05:00,
2013-07-20 17:10:00,82.8,73.2,29.95,North,0,0.0,1.2,73,0.16,RA,,0.16,20.0,WeatherDisplay:10.37,2013-07-20 22:10:00,
2013-07-20 17:15:00,82.6,73.4,29.95,NNW,338,0.0,0.3,74,0.19,RA,,0.19,20.0,WeatherDisplay:10.37,2013-07-20 22:15:00,
2013-07-20 17:21:00,82.6,73.8,29.95,ESE,112,0.0,0.2,75,0.28,RA,,0.28,20.0,WeatherDisplay:10.37,2013-07-20 22:21:00,
2013-07-20 17:26:00,82.4,74.5,29.95,ESE,112,2.4,2.4,77,0.28,RA,,0.28,20.0,WeatherDisplay:10.37,2013-07-20 22:26:00,
2013-07-20 17:31:00,82.8,75.2,29.90,East,90,2.3,2.3,78,0.32,RA,,0.32,20.0,WeatherDisplay:10.37,2013-07-20 22:31:00,
2013-07-20 17:36:00,82.8,75.6,29.90,ESE,112,3.5,3.5,79,0.32,RA,,0.32,20.0,WeatherDisplay:10.37,2013-07-20 22:36:00,
2013-07-20 17:42:00,82.9,75.8,29.90,ESE,112,3.5,3.5,79,0.32,OVC,,0.32,20.0,WeatherDisplay:10.37,2013-07-20 22:42:00,
2013-07-20 17:47:00,82.8,75.6,29.90,ESE,112,4.6,4.6,79,0.32,OVC,,0.32,20.0,WeatherDisplay:10.37,2013-07-20 22:47:00,
2013-07-20 17:52:00,82.4,75.2,29.92,East,90,3.5,3.6,79,0.32,OVC,,0.32,20.0,WeatherDisplay:10.37,2013-07-20 22:52:00,
2013-07-20 17:57:00,82.4,75.2,29.92,ENE,68,4.6,4.6,79,0.22,OVC,,0.32,20.0,WeatherDisplay:10.37,2013-07-20 22:57:00,
2013-07-20 18:03:00,82.2,75.1,29.92,NE,45,2.3,3.2,79,0.19,OVC,,0.32,20.0,WeatherDisplay:10.37,2013-07-20 23:03:00,
2013-07-20 18:08:00,81.9,74.7,29.92,NNE,22,3.5,3.5,79,0.16,OVC,,0.32,20.0,WeatherDisplay:10.37,2013-07-20 23:08:00,
2013-07-20 18:13:00,81.5,74.4,29.92,North,0,2.6,2.6,79,0.16,OVC,,0.32,20.0,WeatherDisplay:10.37,2013-07-20 23:13:00,
2013-07-20 18:18:00,81.3,74.6,29.92,NE,45,2.3,2.3,80,0.10,OVC,,0.32,20.0,WeatherDisplay:10.37,2013-07-20 23:18:00,
2013-07-20 18:24:00,81.1,74.8,29.92,ENE,68,0.0,0.7,81,0.04,OVC,,0.32,20.0,WeatherDisplay:10.37,2013-07-20 23:24:00,
2013-07-20 18:30:00,81.0,74.6,29.90,East,90,0.0,0.3,81,0.00,OVC,,0.32,20.0,WeatherDisplay:10.37,2013-07-20 23:30:00,
2013-07-20 18:36:00,81.0,74.6,29.90,SE,135,3.5,3.5,81,0.00,OVC,,0.32,0.0,WeatherDisplay:10.37,2013-07-20 23:36:00,
2013-07-20 18:41:00,81.1,74.8,29.90,SSE,158,2.3,2.3,81,0.00,OVC,,0.32,0.0,WeatherDisplay:10.37,2013-07-20 23:41:00,
2013-07-20 18:46:00,81.1,74.4,29.90,ENE,68,3.5,3.5,80,0.00,OVC,,0.32,0.0,WeatherDisplay:10.37,2013-07-20 23:46:00,
2013-07-20 18:52:00,81.3,74.6,29.90,SE,135,2.3,2.3,80,0.00,OVC,,0.32,0.0,WeatherDisplay:10.37,2013-07-20 23:52:00,
2013-07-20 18:57:00,81.1,74.8,29.90,SE,135,3.5,3.5,81,0.00,OVC,,0.32,0.0,WeatherDisplay:10.37,2013-07-20 23:57:00,
2013-07-20 19:03:00,81.3,74.6,29.90,ENE,68,3.5,3.5,80,0.00,OVC,,0.32,0.0,WeatherDisplay:10.37,2013-07-21 00:03:00,
2013-07-20 19:08:00,81.5,74.7,29.90,ESE,112,3.5,3.5,80,0.00,OVC,,0.32,0.0,WeatherDisplay:10.37,2013-07-21 00:08:00,
2013-07-20 19:14:00,81.5,74.4,29.90,ESE,112,4.6,4.6,79,0.00,OVC,,0.32,0.0,WeatherDisplay:10.37,2013-07-21 00:14:00,
2013-07-20 19:19:00,81.9,74.7,29.90,ESE,112,4.6,4.6,79,0.00,OVC,,0.32,0.0,WeatherDisplay:10.37,2013-07-21 00:19:00,
2013-07-20 19:25:00,81.7,74.1,29.90,ESE,112,3.8,3.8,78,0.00,OVC,,0.32,0.0,WeatherDisplay:10.37,2013-07-21 00:25:00,
2013-07-20 19:30:00,81.9,74.3,29.90,SE,135,3.5,3.5,78,0.00,OVC,,0.32,0.0,WeatherDisplay:10.37,2013-07-21 00:30:00,
2013-07-20 19:36:00,81.5,74.4,29.90,West,270,2.3,2.3,79,0.00,OVC,,0.32,0.0,WeatherDisplay:10.37,2013-07-21 00:36:00,
2013-07-20 19:42:00,81.0,74.2,29.90,WSW,248,0.0,0.3,80,0.00,OVC,,0.32,0.0,WeatherDisplay:10.37,2013-07-21 00:42:00,
2013-07-20 19:47:00,81.1,74.8,29.90,ESE,112,2.9,2.9,81,0.00,OVC,,0.32,0.0,WeatherDisplay:10.37,2013-07-21 00:47:00,
2013-07-20 19:52:00,81.1,74.8,29.90,SSE,158,3.5,3.5,81,0.00,OVC,,0.32,0.0,WeatherDisplay:10.37,2013-07-21 00:52:00,
2013-07-20 19:57:00,81.5,74.7,29.90,SSE,158,0.0,0.8,80,0.00,OVC,,0.32,0.0,WeatherDisplay:10.37,2013-07-21 00:57:00,
2013-07-20 20:03:00,81.5,75.1,29.90,South,180,0.0,0.2,81,0.00,OVC,,0.32,0.0,WeatherDisplay:10.37,2013-07-21 01:03:00,
2013-07-20 20:08:00,81.3,74.9,29.90,SSE,158,0.0,0.2,81,0.00,OVC,,0.32,0.0,WeatherDisplay:10.37,2013-07-21 01:08:00,
2013-07-20 20:13:00,81.0,74.6,29.91,SSE,158,1.2,1.2,81,0.00,OVC,,0.32,0.0,WeatherDisplay:10.37,2013-07-21 01:13:00,
2013-07-20 20:18:00,81.1,75.1,29.91,SE,135,3.5,3.5,82,0.00,OVC,,0.32,0.0,WeatherDisplay:10.37,2013-07-21 01:18:00,
2013-07-20 20:24:00,81.1,74.8,29.91,South,180,1.2,1.5,81,0.00,OVC,,0.32,0.0,WeatherDisplay:10.37,2013-07-21 01:24:00,
2013-07-20 20:29:00,81.1,74.8,29.91,SSE,158,1.6,1.6,81,0.00,OVC,,0.32,0.0,WeatherDisplay:10.37,2013-07-21 01:29:00,
2013-07-20 20:35:00,81.0,74.2,29.91,SE,135,1.2,1.3,80,0.00,OVC,,0.32,0.0,WeatherDisplay:10.37,2013-07-21 01:35:00,
2013-07-20 20:40:00,80.8,74.4,29.91,SE,135,2.3,2.3,81,0.00,OVC,,0.32,0.0,WeatherDisplay:10.37,2013-07-21 01:40:00,
2013-07-20 20:45:00,80.8,74.0,29.91,ESE,112,2.6,2.6,80,0.00,OVC,,0.32,0.0,WeatherDisplay:10.37,2013-07-21 01:45:00,
2013-07-20 20:51:00,81.0,73.8,29.92,SSE,158,3.5,3.5,79,0.00,OVC,,0.32,0.0,WeatherDisplay:10.37,2013-07-21 01:51:00,
2013-07-20 20:56:00,80.8,73.7,29.92,SSE,158,1.2,1.5,79,0.00,OVC,,0.32,0.0,WeatherDisplay:10.37,2013-07-21 01:56:00,
2013-07-20 21:02:00,80.6,73.5,29.92,SSE,158,1.2,1.3,79,0.00,CLR,,0.32,0.0,WeatherDisplay:10.37,2013-07-21 02:02:00,
2013-07-20 21:07:00,80.8,73.7,29.92,SE,135,2.3,2.3,79,0.00,CLR,,0.32,0.0,WeatherDisplay:10.37,2013-07-21 02:07:00,
2013-07-20 21:12:00,80.6,73.1,29.92,SSE,158,1.2,1.3,78,0.00,CLR,,0.32,0.0,WeatherDisplay:10.37,2013-07-21 02:12:00,
2013-07-20 21:18:00,80.4,72.9,29.92,SSE,158,1.5,1.6,78,0.00,CLR,,0.32,0.0,WeatherDisplay:10.37,2013-07-21 02:18:00,
2013-07-20 21:23:00,80.4,72.5,29.92,SSE,158,2.4,2.4,77,0.00,CLR,,0.32,0.0,WeatherDisplay:10.37,2013-07-21 02:23:00,
2013-07-20 21:29:00,80.2,72.4,29.93,SSE,158,3.5,3.5,77,0.00,CLR,,0.32,0.0,WeatherDisplay:10.37,2013-07-21 02:29:00,
2013-07-20 21:34:00,80.4,72.5,29.93,ESE,112,2.3,2.3,77,0.00,CLR,,0.32,0.0,WeatherDisplay:10.37,2013-07-21 02:34:00,
2013-07-20 21:39:00,80.2,72.4,29.93,ESE,112,3.5,3.5,77,0.00,CLR,,0.32,0.0,WeatherDisplay:10.37,2013-07-21 02:39:00,
2013-07-20 21:44:00,80.1,72.2,29.93,SE,135,2.3,2.6,77,0.00,CLR,,0.32,0.0,WeatherDisplay:10.37,2013-07-21 02:44:00,
2013-07-20 21:49:00,80.1,72.2,29.93,ESE,112,3.5,3.5,77,0.00,CLR,,0.32,0.0,WeatherDisplay:10.37,2013-07-21 02:49:00,
2013-07-20 21:55:00,80.1,72.2,29.93,SSE,158,4.6,4.6,77,0.00,CLR,,0.32,0.0,WeatherDisplay:10.37,2013-07-21 02:55:00,
2013-07-20 22:00:00,79.9,72.0,29.93,East,90,2.3,2.5,77,0.00,CLR,,0.32,0.0,WeatherDisplay:10.37,2013-07-21 03:00:00,
2013-07-20 22:05:00,80.1,72.2,29.93,SE,135,4.6,4.6,77,0.00,CLR,,0.32,0.0,WeatherDisplay:10.37,2013-07-21 03:05:00,
2013-07-20 22:10:00,80.1,72.2,29.94,SE,135,4.6,4.6,77,0.00,CLR,,0.32,0.0,WeatherDisplay:10.37,2013-07-21 03:10:00,
2013-07-20 22:15:00,79.9,72.0,29.94,SSE,158,4.6,4.6,77,0.00,CLR,,0.32,0.0,WeatherDisplay:10.37,2013-07-21 03:15:00,
2013-07-20 22:20:00,79.7,71.8,29.94,NW,315,5.8,5.8,77,0.00,CLR,,0.32,0.0,WeatherDisplay:10.37,2013-07-21 03:20:00,
2013-07-20 22:26:00,79.7,71.8,29.94,ESE,112,3.9,4.0,77,0.00,CLR,,0.32,0.0,WeatherDisplay:10.37,2013-07-21 03:26:00,
2013-07-20 22:31:00,79.5,71.7,29.95,SE,135,3.5,4.0,77,0.00,CLR,,0.32,0.0,WeatherDisplay:10.37,2013-07-21 03:31:00,
2013-07-20 22:36:00,79.5,71.7,29.95,ESE,112,2.3,3.5,77,0.00,CLR,,0.32,0.0,WeatherDisplay:10.37,2013-07-21 03:36:00,
2013-07-20 22:41:00,79.7,72.2,29.95,ESE,112,4.6,4.6,78,0.00,CLR,,0.32,0.0,WeatherDisplay:10.37,2013-07-21 03:41:00,
2013-07-20 22:47:00,79.7,72.2,29.95,SE,135,7.2,7.2,78,0.00,CLR,,0.32,0.0,WeatherDisplay:10.37,2013-07-21 03:47:00,
2013-07-20 22:52:00,79.7,72.2,29.94,ENE,68,3.5,4.3,78,0.00,CLR,,0.32,0.0,WeatherDisplay:10.37,2013-07-21 03:52:00,
2013-07-20 22:57:00,79.3,71.9,29.94,ENE,68,4.6,4.6,78,0.00,CLR,,0.32,0.0,WeatherDisplay:10.37,2013-07-21 03:57:00,
2013-07-20 23:01:00,79.3,71.9,29.94,ESE,112,4.6,4.6,78,0.00,CLR,,0.32,0.0,WeatherDisplay:10.37,2013-07-21 04:01:00,
2013-07-20 23:06:00,79.3,71.9,29.94,SE,135,4.6,4.6,78,0.00,CLR,,0.32,0.0,WeatherDisplay:10.37,2013-07-21 04:06:00,
2013-07-20 23:12:00,79.2,72.1,29.93,ESE,112,6.2,6.2,79,0.00,CLR,,0.32,0.0,WeatherDisplay:10.37,2013-07-21 04:12:00,
2013-07-20 23:17:00,79.3,72.3,29.93,SSE,158,4.6,4.6,79,0.00,CLR,,0.32,0.0,WeatherDisplay:10.37,2013-07-21 04:17:00,
2013-07-20 23:22:00,79.2,72.1,29.93,SE,135,4.6,4.6,79,0.00,CLR,,0.32,0.0,WeatherDisplay:10.37,2013-07-21 04:22:00,
2013-07-20 23:27:00,79.0,71.9,29.93,ESE,112,4.6,4.6,79,0.00,CLR,,0.32,0.0,WeatherDisplay:10.37,2013-07-21 04:27:00,
2013-07-20 23:33:00,79.0,71.9,29.94,SSE,158,4.6,4.6,79,0.00,CLR,,0.32,0.0,WeatherDisplay:10.37,2013-07-21 04:33:00,
2013-07-20 23:38:00,78.8,71.7,29.94,South,180,1.2,2.5,79,0.00,CLR,,0.32,0.0,WeatherDisplay:10.37,2013-07-21 04:38:00,
2013-07-20 23:43:00,79.0,72.3,29.94,South,180,3.5,3.5,80,0.00,CLR,,0.32,0.0,WeatherDisplay:10.37,2013-07-21 04:43:00,
2013-07-20 23:48:00,79.0,72.3,29.94,SE,135,3.5,3.5,80,0.00,CLR,,0.32,0.0,WeatherDisplay:10.37,2013-07-21 04:48:00,
2013-07-20 23:53:00,78.8,72.1,29.95,SSE,158,2.3,2.3,80,0.00,CLR,,0.32,0.0,WeatherDisplay:10.37,2013-07-21 04:53:00,
2013-07-20 23:58:00,78.6,71.9,29.95,East,90,2.3,2.3,80,0.00,CLR,,0.32,0.0,WeatherDisplay:10.37,2013-07-21 04:58:00,